Terminal Aerodrome Forecast
Issued by NWS

Home | Current Version | Previous Version | Text Only | Print | Product List | Glossary On
Versions: 1 2 3 4 5 6 7 8 9 10 11 12 13 14 15 16 17 18 19 20 21 22 23 24 25 26 27 28 29 30 31 32 33 34 35
000
FTUS41 KBOX 011125
TAFACK
TAF
KACK 011125Z 0112/0212 14012KT 1/4SM FG VV002
     FM011400 16010KT 4SM SHRA BR OVC035
     FM011700 20011KT 6SM BR BKN090
     FM012200 21012KT 6SM BR SCT250
     FM020800 25008KT 6SM BR SCT250=

USA.gov is the U.S. government's official web portal to all federal, state and local government web resources and services.